Forestal Gaia — 3FAX7 — position and weather

sailwx.info

Track history (hours):
 
Tides and Currents Weather Stations Pressure Air Temp Water Temp Dewpoint Dewpoint Depression Visibility Wind Speed Wind Dir Waves Ship Positions

Forestal Gaia

Last reported at 2017-Dec-28 01:21 UTC. Time now 2018-Feb-26 03:53 UTC.
Position N 04°08' W 000°07'.
Warning: this ship's position is months out of date.

Length 198.4 m; beam 32.2 m.

Type: Cargo ship. MMSI: 353982000.

Date/timePositionNaut miles runAvg speedWind from/ knotsBaromVisibWave heightAir tempDewpointWater temp
2017-Dec-28 01:21N 04°08' W 000°07'512.7
2017-Dec-28 00:58N 04°11' W 000°03'1312.6
2017-Dec-27 23:57N 04°19' E 000°08'512.6
2017-Dec-27 23:31N 04°22' E 000°12'612.4
2017-Dec-27 23:01N 04°26' E 000°17'612.3
2017-Dec-27 22:31N 04°30' E 000°22'612.3
2017-Dec-27 22:01N 04°34' E 000°27'612.3
2017-Dec-27 21:31N 04°38' E 000°31'612.4
2017-Dec-27 21:00N 04°42' E 000°36'612.4
2017-Dec-27 20:31N 04°45' E 000°41'612.5
2017-Dec-27 20:01N 04°49' E 000°46'612.5
2017-Dec-27 19:31N 04°53' E 000°51'612.4
2017-Dec-27 19:00N 04°57' E 000°56'612.2
2017-Dec-27 18:31N 05°01' E 001°00'713.0
2017-Dec-27 18:01N 05°07' E 001°03'1313.4
2017-Dec-27 17:02N 05°20' E 001°06'014.1
2017-Dec-27 17:00N 05°20' E 001°07'713.9
2017-Dec-27 16:30N 05°27' E 001°09'714.0
2017-Dec-27 15:59N 05°34' E 001°11'714.1
2017-Dec-27 15:31N 05°40' E 001°13'713.7
2017-Dec-27 15:00N 05°47' E 001°15'612.5
2017-Dec-27 14:30N 05°53' E 001°17'11 1.2
2017-Dec-27 05:36N 06°04' E 001°19'0 0.0
2017-Dec-27 05:27N 06°04' E 001°19'0 0.0
2017-Dec-27 04:57N 06°04' E 001°19'0 0.0
2017-Dec-27 04:27N 06°04' E 001°19'0 0.0
2017-Dec-27 04:00N 06°04' E 001°19'0 0.2
2017-Dec-27 03:27N 06°04' E 001°19'0 0.1
2017-Dec-27 03:00N 06°04' E 001°19'2 4.7
2017-Dec-27 02:30N 06°03' E 001°22'130 5.5
2017-Dec-26 02:56N 05°21' E 003°25'1711.8
2017-Dec-26 01:31N 05°05' E 003°25'611.7
2017-Dec-26 01:03N 04°59' E 003°26'111.8
2017-Dec-26 00:59N 04°58' E 003°26'  
Track history (hours):
 
Tides and Currents Weather Stations Pressure Air Temp Water Temp Dewpoint Dewpoint Depression Visibility Wind Speed Wind Dir Waves Ship Positions

Forestal Gaia

Last reported at 2017-Dec-28 01:21 UTC. Time now 2018-Feb-26 03:53 UTC.
Position N 04°08' W 000°07'.
Warning: this ship's position is months out of date.

Length 198.4 m; beam 32.2 m.

Type: Cargo ship. MMSI: 353982000.

Date/timePositionNaut miles runAvg speedWind from/ knotsBaromVisibWave heightAir tempDewpointWater temp
2017-Dec-28 01:21N 04°08' W 000°07'512.7
2017-Dec-28 00:58N 04°11' W 000°03'1312.6
2017-Dec-27 23:57N 04°19' E 000°08'512.6
2017-Dec-27 23:31N 04°22' E 000°12'612.4
2017-Dec-27 23:01N 04°26' E 000°17'612.3
2017-Dec-27 22:31N 04°30' E 000°22'612.3
2017-Dec-27 22:01N 04°34' E 000°27'612.3
2017-Dec-27 21:31N 04°38' E 000°31'612.4
2017-Dec-27 21:00N 04°42' E 000°36'612.4
2017-Dec-27 20:31N 04°45' E 000°41'612.5
2017-Dec-27 20:01N 04°49' E 000°46'612.5
2017-Dec-27 19:31N 04°53' E 000°51'612.4
2017-Dec-27 19:00N 04°57' E 000°56'612.2
2017-Dec-27 18:31N 05°01' E 001°00'713.0
2017-Dec-27 18:01N 05°07' E 001°03'1313.4
2017-Dec-27 17:02N 05°20' E 001°06'014.1
2017-Dec-27 17:00N 05°20' E 001°07'713.9
2017-Dec-27 16:30N 05°27' E 001°09'714.0
2017-Dec-27 15:59N 05°34' E 001°11'714.1
2017-Dec-27 15:31N 05°40' E 001°13'713.7
2017-Dec-27 15:00N 05°47' E 001°15'612.5
2017-Dec-27 14:30N 05°53' E 001°17'11 1.2
2017-Dec-27 05:36N 06°04' E 001°19'0 0.0
2017-Dec-27 05:27N 06°04' E 001°19'0 0.0
2017-Dec-27 04:57N 06°04' E 001°19'0 0.0
2017-Dec-27 04:27N 06°04' E 001°19'0 0.0
2017-Dec-27 04:00N 06°04' E 001°19'0 0.2
2017-Dec-27 03:27N 06°04' E 001°19'0 0.1
2017-Dec-27 03:00N 06°04' E 001°19'2 4.7
2017-Dec-27 02:30N 06°03' E 001°22'130 5.5
2017-Dec-26 02:56N 05°21' E 003°25'1711.8
2017-Dec-26 01:31N 05°05' E 003°25'611.7
2017-Dec-26 01:03N 04°59' E 003°26'111.8
2017-Dec-26 00:59N 04°58' E 003°26'  

Dump ship's entire track history